sensor_id;sensor_type;location;lat;lon;timestamp;pressure;altitude;pressure_sealevel;temperature;humidity
84994;BME280;75309;44.830;20.460;2024-03-23T00:54:52;100748.63;;;12.29;53.81
84994;BME280;75309;44.830;20.460;2024-03-23T00:57:19;100745.98;;;12.23;53.57
84994;BME280;75309;44.830;20.460;2024-03-23T00:59:47;100743.02;;;12.22;53.37
84994;BME280;75309;44.830;20.460;2024-03-23T01:02:14;100739.16;;;12.24;53.25
84994;BME280;75309;44.830;20.460;2024-03-23T01:04:43;100737.05;;;12.27;53.01
84994;BME280;75309;44.830;20.460;2024-03-23T01:07:10;100734.09;;;12.30;52.84
84994;BME280;75309;44.830;20.460;2024-03-23T01:09:38;100736.05;;;12.32;52.68
84994;BME280;75309;44.830;20.460;2024-03-23T01:12:07;100733.60;;;12.30;52.65
84994;BME280;75309;44.830;20.460;2024-03-23T01:14:34;100734.08;;;12.30;52.64
84994;BME280;75309;44.830;20.460;2024-03-23T01:17:03;100731.31;;;12.29;52.48
84994;BME280;75309;44.830;20.460;2024-03-23T01:19:31;100732.52;;;12.29;52.52
84994;BME280;75309;44.830;20.460;2024-03-23T01:21:59;100728.16;;;12.28;52.47
84994;BME280;75309;44.830;20.460;2024-03-23T01:24:26;100726.23;;;12.27;52.63
84994;BME280;75309;44.830;20.460;2024-03-23T01:26:54;100724.29;;;12.26;52.78
84994;BME280;75309;44.830;20.460;2024-03-23T01:29:22;100726.97;;;12.24;52.96
84994;BME280;75309;44.830;20.460;2024-03-23T01:31:50;100721.96;;;12.24;53.15
84994;BME280;75309;44.830;20.460;2024-03-23T01:34:17;100720.70;;;12.23;53.27
84994;BME280;75309;44.830;20.460;2024-03-23T01:36:47;100719.85;;;12.15;54.23
84994;BME280;75309;44.830;20.460;2024-03-23T01:39:15;100719.45;;;12.05;54.28
84994;BME280;75309;44.830;20.460;2024-03-23T01:41:42;100720.86;;;11.95;54.67
84994;BME280;75309;44.830;20.460;2024-03-23T01:44:10;100721.05;;;11.84;55.51
84994;BME280;75309;44.830;20.460;2024-03-23T01:46:38;100720.20;;;11.80;55.58
84994;BME280;75309;44.830;20.460;2024-03-23T01:49:06;100714.14;;;11.79;55.61
84994;BME280;75309;44.830;20.460;2024-03-23T01:51:36;100713.29;;;11.80;55.45
84994;BME280;75309;44.830;20.460;2024-03-23T01:54:05;100714.05;;;11.77;55.50
84994;BME280;75309;44.830;20.460;2024-03-23T01:56:34;100710.92;;;11.73;55.25
84994;BME280;75309;44.830;20.460;2024-03-23T01:59:05;100709.65;;;11.67;55.45
84994;BME280;75309;44.830;20.460;2024-03-23T02:01:36;100709.10;;;11.62;56.16
84994;BME280;75309;44.830;20.460;2024-03-23T02:04:05;100707.05;;;11.62;57.27
84994;BME280;75309;44.830;20.460;2024-03-23T02:06:34;100701.90;;;11.63;56.86
84994;BME280;75309;44.830;20.460;2024-03-23T02:09:03;100703.65;;;11.63;56.55
84994;BME280;75309;44.830;20.460;2024-03-23T02:11:31;100703.55;;;11.58;57.93
84994;BME280;75309;44.830;20.460;2024-03-23T02:13:59;100700.95;;;11.53;57.69
84994;BME280;75309;44.830;20.460;2024-03-23T02:16:27;100700.20;;;11.52;57.17
84994;BME280;75309;44.830;20.460;2024-03-23T02:18:54;100697.23;;;11.51;57.19
84994;BME280;75309;44.830;20.460;2024-03-23T02:21:23;100695.71;;;11.51;57.26
84994;BME280;75309;44.830;20.460;2024-03-23T02:23:51;100695.59;;;11.52;56.96
84994;BME280;75309;44.830;20.460;2024-03-23T02:26:18;100696.45;;;11.49;57.00
84994;BME280;75309;44.830;20.460;2024-03-23T02:28:46;100692.90;;;11.46;56.97
84994;BME280;75309;44.830;20.460;2024-03-23T02:31:14;100684.88;;;11.43;57.02
84994;BME280;75309;44.830;20.460;2024-03-23T02:33:42;100683.92;;;11.41;57.07
84994;BME280;75309;44.830;20.460;2024-03-23T02:36:10;100683.68;;;11.40;57.31
84994;BME280;75309;44.830;20.460;2024-03-23T02:38:39;100681.52;;;11.41;57.19
84994;BME280;75309;44.830;20.460;2024-03-23T02:41:07;100677.91;;;11.41;57.15
84994;BME280;75309;44.830;20.460;2024-03-23T02:43:35;100675.13;;;11.40;57.37
84994;BME280;75309;44.830;20.460;2024-03-23T02:46:03;100669.21;;;11.38;57.24
84994;BME280;75309;44.830;20.460;2024-03-23T02:48:36;100668.69;;;11.38;56.98
84994;BME280;75309;44.830;20.460;2024-03-23T02:51:04;100664.80;;;11.35;57.19
84994;BME280;75309;44.830;20.460;2024-03-23T02:53:32;100664.14;;;11.37;56.79
84994;BME280;75309;44.830;20.460;2024-03-23T02:56:01;100658.14;;;11.32;57.03
84994;BME280;75309;44.830;20.460;2024-03-23T02:58:29;100657.67;;;11.26;57.48
84994;BME280;75309;44.830;20.460;2024-03-23T03:00:57;100664.21;;;11.15;58.83
84994;BME280;75309;44.830;20.460;2024-03-23T03:03:24;100662.48;;;11.04;58.71
84994;BME280;75309;44.830;20.460;2024-03-23T03:05:56;100656.95;;;10.92;59.72
84994;BME280;75309;44.830;20.460;2024-03-23T03:08:24;100653.28;;;10.83;59.66
84994;BME280;75309;44.830;20.460;2024-03-23T03:10:52;100651.75;;;10.73;59.97
84994;BME280;75309;44.830;20.460;2024-03-23T03:13:20;100650.27;;;10.63;60.24
84994;BME280;75309;44.830;20.460;2024-03-23T03:15:48;100649.00;;;10.55;60.78
84994;BME280;75309;44.830;20.460;2024-03-23T03:18:16;100644.16;;;10.47;61.13
84994;BME280;75309;44.830;20.460;2024-03-23T03:20:44;100641.27;;;10.40;61.25
84994;BME280;75309;44.830;20.460;2024-03-23T03:23:12;100635.63;;;10.37;61.63
84994;BME280;75309;44.830;20.460;2024-03-23T03:25:40;100634.76;;;10.37;62.16
84994;BME280;75309;44.830;20.460;2024-03-23T03:28:08;100636.63;;;10.40;62.57
84994;BME280;75309;44.830;20.460;2024-03-23T03:30:35;100636.06;;;10.50;62.56
84994;BME280;75309;44.830;20.460;2024-03-23T03:33:03;100635.02;;;10.60;62.57
84994;BME280;75309;44.830;20.460;2024-03-23T03:35:31;100633.06;;;10.69;62.24
84994;BME280;75309;44.830;20.460;2024-03-23T03:37:59;100632.46;;;10.78;61.94
84994;BME280;75309;44.830;20.460;2024-03-23T03:40:27;100631.20;;;10.84;61.65
84994;BME280;75309;44.830;20.460;2024-03-23T03:42:54;100624.27;;;10.90;61.56
84994;BME280;75309;44.830;20.460;2024-03-23T03:45:25;100622.61;;;10.94;61.22
84994;BME280;75309;44.830;20.460;2024-03-23T03:47:53;100623.23;;;10.96;60.82
84994;BME280;75309;44.830;20.460;2024-03-23T03:50:22;100622.52;;;10.92;60.92
84994;BME280;75309;44.830;20.460;2024-03-23T03:52:49;100618.55;;;10.81;60.86
84994;BME280;75309;44.830;20.460;2024-03-23T03:55:18;100618.60;;;10.68;61.32
84994;BME280;75309;44.830;20.460;2024-03-23T03:57:45;100615.73;;;10.55;62.12
84994;BME280;75309;44.830;20.460;2024-03-23T04:00:14;100612.95;;;10.43;62.82
84994;BME280;75309;44.830;20.460;2024-03-23T04:02:42;100610.30;;;10.38;63.47
84994;BME280;75309;44.830;20.460;2024-03-23T04:05:11;100612.47;;;10.40;63.47
84994;BME280;75309;44.830;20.460;2024-03-23T04:07:42;100616.02;;;10.43;63.61
84994;BME280;75309;44.830;20.460;2024-03-23T04:10:10;100615.62;;;10.45;63.21
84994;BME280;75309;44.830;20.460;2024-03-23T04:12:37;100618.81;;;10.47;63.19
84994;BME280;75309;44.830;20.460;2024-03-23T04:15:05;100622.86;;;10.49;63.02
84994;BME280;75309;44.830;20.460;2024-03-23T04:17:33;100622.63;;;10.48;63.20
84994;BME280;75309;44.830;20.460;2024-03-23T04:20:05;100620.66;;;10.40;63.64
84994;BME280;75309;44.830;20.460;2024-03-23T04:22:37;100621.48;;;10.36;64.55
84994;BME280;75309;44.830;20.460;2024-03-23T04:25:05;100623.48;;;10.38;64.71
84994;BME280;75309;44.830;20.460;2024-03-23T04:27:34;100624.13;;;10.40;64.94
84994;BME280;75309;44.830;20.460;2024-03-23T04:30:02;100622.87;;;10.42;65.24
84994;BME280;75309;44.830;20.460;2024-03-23T04:32:31;100623.42;;;10.47;65.65
84994;BME280;75309;44.830;20.460;2024-03-23T04:34:59;100621.02;;;10.50;65.40
84994;BME280;75309;44.830;20.460;2024-03-23T04:37:27;100623.65;;;10.55;65.31
84994;BME280;75309;44.830;20.460;2024-03-23T04:39:55;100623.30;;;10.58;65.04
84994;BME280;75309;44.830;20.460;2024-03-23T04:42:22;100624.64;;;10.58;64.93
84994;BME280;75309;44.830;20.460;2024-03-23T04:44:53;100621.02;;;10.47;65.03
84994;BME280;75309;44.830;20.460;2024-03-23T04:47:22;100616.00;;;10.36;65.23
84994;BME280;75309;44.830;20.460;2024-03-23T04:49:50;100613.87;;;10.24;65.15
84994;BME280;75309;44.830;20.460;2024-03-23T04:52:18;100613.73;;;10.10;65.46
84994;BME280;75309;44.830;20.460;2024-03-23T04:54:46;100618.48;;;9.99;65.77
84994;BME280;75309;44.830;20.460;2024-03-23T04:57:13;100615.02;;;9.92;66.03
84994;BME280;75309;44.830;20.460;2024-03-23T04:59:41;100619.35;;;9.86;66.41
84994;BME280;75309;44.830;20.460;2024-03-23T05:02:09;100618.70;;;9.83;66.92
84994;BME280;75309;44.830;20.460;2024-03-23T05:04:38;100617.94;;;9.85;67.10
84994;BME280;75309;44.830;20.460;2024-03-23T05:07:08;100613.54;;;9.83;66.54
84994;BME280;75309;44.830;20.460;2024-03-23T05:09:36;100610.29;;;9.76;66.72
84994;BME280;75309;44.830;20.460;2024-03-23T05:12:04;100614.29;;;9.74;67.25
84994;BME280;75309;44.830;20.460;2024-03-23T05:14:32;100615.04;;;9.75;67.48
84994;BME280;75309;44.830;20.460;2024-03-23T05:17:00;100612.70;;;9.80;67.54
84994;BME280;75309;44.830;20.460;2024-03-23T05:19:28;100611.02;;;9.83;67.14
84994;BME280;75309;44.830;20.460;2024-03-23T05:21:56;100606.59;;;9.88;67.00
84994;BME280;75309;44.830;20.460;2024-03-23T05:24:24;100609.20;;;9.91;67.03
84994;BME280;75309;44.830;20.460;2024-03-23T05:26:52;100604.50;;;9.97;66.78
84994;BME280;75309;44.830;20.460;2024-03-23T05:29:19;100602.36;;;10.02;66.28
84994;BME280;75309;44.830;20.460;2024-03-23T05:31:51;100600.47;;;10.09;65.85
84994;BME280;75309;44.830;20.460;2024-03-23T05:34:19;100598.85;;;10.14;65.68
84994;BME280;75309;44.830;20.460;2024-03-23T05:36:46;100596.84;;;10.19;65.41
84994;BME280;75309;44.830;20.460;2024-03-23T05:39:14;100597.05;;;10.16;65.31
84994;BME280;75309;44.830;20.460;2024-03-23T05:41:44;100596.89;;;10.09;65.24
84994;BME280;75309;44.830;20.460;2024-03-23T05:44:11;100594.48;;;10.02;65.42
84994;BME280;75309;44.830;20.460;2024-03-23T05:46:39;100590.15;;;9.97;65.76
84994;BME280;75309;44.830;20.460;2024-03-23T05:49:08;100592.40;;;9.94;65.61
84994;BME280;75309;44.830;20.460;2024-03-23T05:51:37;100590.47;;;9.93;65.62
84994;BME280;75309;44.830;20.460;2024-03-23T05:54:05;100590.17;;;9.95;65.48
84994;BME280;75309;44.830;20.460;2024-03-23T05:56:33;100590.88;;;9.95;65.55
84994;BME280;75309;44.830;20.460;2024-03-23T05:59:02;100590.30;;;9.94;65.38
84994;BME280;75309;44.830;20.460;2024-03-23T06:01:30;100589.83;;;9.94;65.50
84994;BME280;75309;44.830;20.460;2024-03-23T06:04:00;100591.08;;;9.95;65.49
84994;BME280;75309;44.830;20.460;2024-03-23T06:06:29;100589.61;;;9.97;65.31
84994;BME280;75309;44.830;20.460;2024-03-23T06:08:57;100589.41;;;10.00;65.57
84994;BME280;75309;44.830;20.460;2024-03-23T06:11:25;100586.88;;;10.04;65.74
84994;BME280;75309;44.830;20.460;2024-03-23T06:13:54;100587.86;;;10.10;66.08
84994;BME280;75309;44.830;20.460;2024-03-23T06:16:22;100587.45;;;10.16;66.13
84994;BME280;75309;44.830;20.460;2024-03-23T06:18:54;100587.77;;;10.22;66.20
84994;BME280;75309;44.830;20.460;2024-03-23T06:21:24;100590.98;;;10.28;66.31
84994;BME280;75309;44.830;20.460;2024-03-23T06:23:52;100587.27;;;10.33;65.94
84994;BME280;75309;44.830;20.460;2024-03-23T06:26:20;100588.40;;;10.39;65.66
84994;BME280;75309;44.830;20.460;2024-03-23T06:28:48;100586.98;;;10.45;65.44
84994;BME280;75309;44.830;20.460;2024-03-23T06:31:16;100585.98;;;10.53;65.06
84994;BME280;75309;44.830;20.460;2024-03-23T06:33:45;100587.95;;;10.61;64.65
84994;BME280;75309;44.830;20.460;2024-03-23T06:36:13;100581.65;;;10.70;64.16
84994;BME280;75309;44.830;20.460;2024-03-23T06:38:44;100585.11;;;10.77;63.86
84994;BME280;75309;44.830;20.460;2024-03-23T06:41:12;100580.52;;;10.86;63.74
84994;BME280;75309;44.830;20.460;2024-03-23T06:43:40;100582.09;;;10.94;63.38
84994;BME280;75309;44.830;20.460;2024-03-23T06:46:08;100582.12;;;11.02;62.93
84994;BME280;75309;44.830;20.460;2024-03-23T06:48:35;100580.98;;;11.11;62.73
84994;BME280;75309;44.830;20.460;2024-03-23T06:51:04;100571.40;;;11.19;62.35
84994;BME280;75309;44.830;20.460;2024-03-23T06:53:32;100570.20;;;11.27;62.12
84994;BME280;75309;44.830;20.460;2024-03-23T06:56:00;100572.02;;;11.33;61.84
84994;BME280;75309;44.830;20.460;2024-03-23T06:58:28;100575.73;;;11.40;61.53
84994;BME280;75309;44.830;20.460;2024-03-23T07:00:56;100576.84;;;11.45;61.40
84994;BME280;75309;44.830;20.460;2024-03-23T07:03:23;100574.38;;;11.48;61.53
84994;BME280;75309;44.830;20.460;2024-03-23T07:05:58;100570.74;;;11.51;61.55
84994;BME280;75309;44.830;20.460;2024-03-23T07:08:26;100569.77;;;11.52;61.43
84994;BME280;75309;44.830;20.460;2024-03-23T07:10:53;100566.77;;;11.54;61.47
84994;BME280;75309;44.830;20.460;2024-03-23T07:13:22;100562.42;;;11.57;61.41
84994;BME280;75309;44.830;20.460;2024-03-23T07:15:54;100560.89;;;11.61;61.00
84994;BME280;75309;44.830;20.460;2024-03-23T07:18:23;100557.20;;;11.67;60.60
84994;BME280;75309;44.830;20.460;2024-03-23T07:20:56;100553.23;;;11.75;60.55
84994;BME280;75309;44.830;20.460;2024-03-23T07:23:28;100551.80;;;11.82;60.46
84994;BME280;75309;44.830;20.460;2024-03-23T07:26:03;100548.49;;;11.89;60.13
84994;BME280;75309;44.830;20.460;2024-03-23T07:28:32;100547.50;;;11.97;59.88
84994;BME280;75309;44.830;20.460;2024-03-23T07:33:32;100546.21;;;12.12;59.18
84994;BME280;75309;44.830;20.460;2024-03-23T07:36:00;100545.33;;;12.20;58.51
84994;BME280;75309;44.830;20.460;2024-03-23T07:38:29;100543.92;;;12.28;58.08
84994;BME280;75309;44.830;20.460;2024-03-23T07:41:18;100536.55;;;12.37;57.88
84994;BME280;75309;44.830;20.460;2024-03-23T07:43:47;100529.49;;;12.50;57.28
84994;BME280;75309;44.830;20.460;2024-03-23T07:46:15;100525.23;;;12.60;57.25
84994;BME280;75309;44.830;20.460;2024-03-23T07:48:43;100522.17;;;12.70;57.18
84994;BME280;75309;44.830;20.460;2024-03-23T07:51:22;100519.64;;;12.80;56.98
84994;BME280;75309;44.830;20.460;2024-03-23T07:53:50;100517.30;;;12.92;57.14
84994;BME280;75309;44.830;20.460;2024-03-23T07:56:18;100514.92;;;13.02;57.06
84994;BME280;75309;44.830;20.460;2024-03-23T07:58:48;100511.82;;;13.11;56.94
84994;BME280;75309;44.830;20.460;2024-03-23T08:01:17;100507.68;;;13.20;56.77
84994;BME280;75309;44.830;20.460;2024-03-23T08:03:45;100503.16;;;13.29;56.48
84994;BME280;75309;44.830;20.460;2024-03-23T08:06:17;100502.86;;;13.39;56.41
84994;BME280;75309;44.830;20.460;2024-03-23T08:08:48;100506.26;;;13.48;55.95
84994;BME280;75309;44.830;20.460;2024-03-23T08:11:16;100504.73;;;13.58;55.33
84994;BME280;75309;44.830;20.460;2024-03-23T08:13:45;100504.56;;;13.69;54.82
84994;BME280;75309;44.830;20.460;2024-03-23T08:16:13;100506.13;;;13.80;54.34
84994;BME280;75309;44.830;20.460;2024-03-23T08:18:41;100504.72;;;13.89;53.88
84994;BME280;75309;44.830;20.460;2024-03-23T08:21:10;100503.05;;;13.96;53.84
84994;BME280;75309;44.830;20.460;2024-03-23T08:23:39;100500.34;;;14.03;53.76
84994;BME280;75309;44.830;20.460;2024-03-23T08:26:09;100500.34;;;14.09;53.93
84994;BME280;75309;44.830;20.460;2024-03-23T08:28:37;100499.26;;;14.13;53.15
84994;BME280;75309;44.830;20.460;2024-03-23T08:31:09;100498.39;;;14.17;52.99
84994;BME280;75309;44.830;20.460;2024-03-23T08:33:38;100494.44;;;14.23;52.75
84994;BME280;75309;44.830;20.460;2024-03-23T08:36:07;100493.73;;;14.29;51.32
84994;BME280;75309;44.830;20.460;2024-03-23T08:38:36;100488.58;;;14.35;50.60
84994;BME280;75309;44.830;20.460;2024-03-23T08:41:08;100485.39;;;14.44;50.78
84994;BME280;75309;44.830;20.460;2024-03-23T08:43:38;100480.87;;;14.53;50.62
84994;BME280;75309;44.830;20.460;2024-03-23T08:46:14;100476.16;;;14.63;50.05
84994;BME280;75309;44.830;20.460;2024-03-23T08:48:46;100471.12;;;14.73;49.40
84994;BME280;75309;44.830;20.460;2024-03-23T08:51:18;100468.64;;;14.83;49.15
84994;BME280;75309;44.830;20.460;2024-03-23T08:53:45;100464.88;;;14.91;48.71
84994;BME280;75309;44.830;20.460;2024-03-23T08:56:13;100459.05;;;14.98;47.98
84994;BME280;75309;44.830;20.460;2024-03-23T08:58:41;100457.36;;;15.06;47.63
84994;BME280;75309;44.830;20.460;2024-03-23T09:01:10;100455.35;;;15.15;47.37
84994;BME280;75309;44.830;20.460;2024-03-23T09:03:38;100455.73;;;15.22;46.68
84994;BME280;75309;44.830;20.460;2024-03-23T09:06:11;100449.11;;;15.26;46.80
84994;BME280;75309;44.830;20.460;2024-03-23T09:08:39;100445.80;;;15.32;46.74
84994;BME280;75309;44.830;20.460;2024-03-23T09:11:10;100445.30;;;15.39;45.96
84994;BME280;75309;44.830;20.460;2024-03-23T09:13:40;100440.75;;;15.44;45.11
84994;BME280;75309;44.830;20.460;2024-03-23T09:16:10;100435.21;;;15.50;45.37
84994;BME280;75309;44.830;20.460;2024-03-23T09:18:38;100427.07;;;15.56;45.12
84994;BME280;75309;44.830;20.460;2024-03-23T09:21:12;100428.29;;;15.64;44.86
84994;BME280;75309;44.830;20.460;2024-03-23T09:23:45;100420.36;;;15.71;44.37
84994;BME280;75309;44.830;20.460;2024-03-23T09:26:13;100418.67;;;15.80;43.85
84994;BME280;75309;44.830;20.460;2024-03-23T09:28:41;100414.81;;;15.84;43.44
84994;BME280;75309;44.830;20.460;2024-03-23T09:31:09;100410.23;;;15.88;43.48
84994;BME280;75309;44.830;20.460;2024-03-23T09:33:42;100403.41;;;15.92;43.84
84994;BME280;75309;44.830;20.460;2024-03-23T09:36:10;100398.19;;;15.97;43.56
84994;BME280;75309;44.830;20.460;2024-03-23T09:38:41;100392.63;;;16.04;43.38
84994;BME280;75309;44.830;20.460;2024-03-23T09:41:09;100391.71;;;16.10;42.86
84994;BME280;75309;44.830;20.460;2024-03-23T09:43:37;100387.02;;;16.17;42.26
84994;BME280;75309;44.830;20.460;2024-03-23T09:46:05;100384.41;;;16.24;42.79
84994;BME280;75309;44.830;20.460;2024-03-23T09:48:37;100377.48;;;16.32;42.78
84994;BME280;75309;44.830;20.460;2024-03-23T09:51:05;100372.96;;;16.39;42.61
84994;BME280;75309;44.830;20.460;2024-03-23T09:53:37;100369.45;;;16.45;42.47
84994;BME280;75309;44.830;20.460;2024-03-23T09:56:05;100363.80;;;16.48;42.18
84994;BME280;75309;44.830;20.460;2024-03-23T09:58:37;100360.60;;;16.52;42.41
84994;BME280;75309;44.830;20.460;2024-03-23T10:01:05;100356.75;;;16.59;42.33
84994;BME280;75309;44.830;20.460;2024-03-23T10:03:44;100352.73;;;16.66;42.22
84994;BME280;75309;44.830;20.460;2024-03-23T10:06:13;100353.08;;;16.75;41.96
84994;BME280;75309;44.830;20.460;2024-03-23T10:08:41;100353.58;;;16.83;42.17
84994;BME280;75309;44.830;20.460;2024-03-23T10:11:16;100348.73;;;16.91;40.58
84994;BME280;75309;44.830;20.460;2024-03-23T10:13:44;100343.63;;;16.96;41.24
84994;BME280;75309;44.830;20.460;2024-03-23T10:16:21;100338.86;;;17.01;40.24
84994;BME280;75309;44.830;20.460;2024-03-23T10:18:50;100336.48;;;17.03;40.42
84994;BME280;75309;44.830;20.460;2024-03-23T10:21:18;100333.39;;;17.05;40.68
84994;BME280;75309;44.830;20.460;2024-03-23T10:23:47;100331.73;;;17.09;40.58
84994;BME280;75309;44.830;20.460;2024-03-23T10:26:20;100322.83;;;17.15;41.12
84994;BME280;75309;44.830;20.460;2024-03-23T10:28:58;100315.69;;;17.23;40.96
84994;BME280;75309;44.830;20.460;2024-03-23T10:31:30;100311.83;;;17.31;40.82
84994;BME280;75309;44.830;20.460;2024-03-23T10:34:00;100308.85;;;17.40;39.75
84994;BME280;75309;44.830;20.460;2024-03-23T10:36:30;100299.40;;;17.47;39.50
84994;BME280;75309;44.830;20.460;2024-03-23T10:38:59;100293.39;;;17.49;39.86
84994;BME280;75309;44.830;20.460;2024-03-23T10:41:28;100285.98;;;17.52;39.19
84994;BME280;75309;44.830;20.460;2024-03-23T10:43:59;100278.80;;;17.58;37.89
84994;BME280;75309;44.830;20.460;2024-03-23T10:46:31;100276.60;;;17.63;37.13
84994;BME280;75309;44.830;20.460;2024-03-23T10:48:59;100269.92;;;17.69;38.48
84994;BME280;75309;44.830;20.460;2024-03-23T10:51:27;100262.89;;;17.74;38.57
84994;BME280;75309;44.830;20.460;2024-03-23T10:53:55;100262.78;;;17.80;37.63
84994;BME280;75309;44.830;20.460;2024-03-23T10:56:25;100257.98;;;17.84;37.65
84994;BME280;75309;44.830;20.460;2024-03-23T10:58:57;100251.59;;;17.85;36.97
84994;BME280;75309;44.830;20.460;2024-03-23T11:01:24;100250.59;;;17.88;37.48
84994;BME280;75309;44.830;20.460;2024-03-23T11:03:52;100241.98;;;17.92;37.58
84994;BME280;75309;44.830;20.460;2024-03-23T11:06:34;100235.80;;;17.96;37.63
84994;BME280;75309;44.830;20.460;2024-03-23T11:09:04;100233.61;;;18.02;37.76
84994;BME280;75309;44.830;20.460;2024-03-23T11:11:32;100231.42;;;18.07;36.13
84994;BME280;75309;44.830;20.460;2024-03-23T11:14:22;100226.63;;;18.13;36.15
84994;BME280;75309;44.830;20.460;2024-03-23T11:17:08;100216.63;;;18.18;36.77
84994;BME280;75309;44.830;20.460;2024-03-23T11:19:38;100211.14;;;18.24;35.07
84994;BME280;75309;44.830;20.460;2024-03-23T11:22:06;100201.44;;;18.26;36.24
84994;BME280;75309;44.830;20.460;2024-03-23T11:24:35;100196.44;;;18.29;36.60
84994;BME280;75309;44.830;20.460;2024-03-23T11:27:15;100192.83;;;18.33;35.91
84994;BME280;75309;44.830;20.460;2024-03-23T11:29:43;100189.25;;;18.38;35.81
84994;BME280;75309;44.830;20.460;2024-03-23T11:32:12;100181.81;;;18.42;35.54
84994;BME280;75309;44.830;20.460;2024-03-23T11:34:40;100179.58;;;18.45;35.93
84994;BME280;75309;44.830;20.460;2024-03-23T11:37:09;100172.65;;;18.47;34.78
84994;BME280;75309;44.830;20.460;2024-03-23T11:39:37;100165.56;;;18.50;34.98
84994;BME280;75309;44.830;20.460;2024-03-23T11:42:05;100160.23;;;18.54;35.37
84994;BME280;75309;44.830;20.460;2024-03-23T11:44:33;100150.01;;;18.57;33.38
84994;BME280;75309;44.830;20.460;2024-03-23T11:47:08;100146.58;;;18.62;34.78
84994;BME280;75309;44.830;20.460;2024-03-23T11:49:36;100139.65;;;18.65;34.56
84994;BME280;75309;44.830;20.460;2024-03-23T11:52:08;100136.57;;;18.70;33.85
84994;BME280;75309;44.830;20.460;2024-03-23T11:54:36;100134.85;;;18.73;34.04
84994;BME280;75309;44.830;20.460;2024-03-23T11:57:08;100128.62;;;18.76;34.75
84994;BME280;75309;44.830;20.460;2024-03-23T11:59:41;100125.52;;;18.80;34.81
84994;BME280;75309;44.830;20.460;2024-03-23T12:02:11;100118.62;;;18.84;34.55
84994;BME280;75309;44.830;20.460;2024-03-23T12:04:41;100112.59;;;18.89;34.85
84994;BME280;75309;44.830;20.460;2024-03-23T12:09:39;100098.55;;;18.96;33.19
84994;BME280;75309;44.830;20.460;2024-03-23T12:14:36;100094.10;;;19.05;34.35
84994;BME280;75309;44.830;20.460;2024-03-23T12:17:11;100094.48;;;19.10;33.28
84994;BME280;75309;44.830;20.460;2024-03-23T12:19:41;100089.63;;;19.16;32.44
84994;BME280;75309;44.830;20.460;2024-03-23T12:22:09;100080.81;;;19.23;32.34
84994;BME280;75309;44.830;20.460;2024-03-23T12:24:37;100075.78;;;19.25;32.64
84994;BME280;75309;44.830;20.460;2024-03-23T12:27:06;100076.84;;;19.28;32.16
84994;BME280;75309;44.830;20.460;2024-03-23T12:29:34;100070.06;;;19.29;32.06
84994;BME280;75309;44.830;20.460;2024-03-23T12:32:02;100070.08;;;19.32;32.72
84994;BME280;75309;44.830;20.460;2024-03-23T12:34:35;100066.45;;;19.38;33.12
84994;BME280;75309;44.830;20.460;2024-03-23T12:37:03;100060.92;;;19.46;32.66
84994;BME280;75309;44.830;20.460;2024-03-23T12:39:34;100055.02;;;19.49;33.02
84994;BME280;75309;44.830;20.460;2024-03-23T12:42:03;100053.45;;;19.51;32.55
84994;BME280;75309;44.830;20.460;2024-03-23T12:44:31;100046.51;;;19.53;33.00
84994;BME280;75309;44.830;20.460;2024-03-23T12:46:59;100041.30;;;19.59;32.96
84994;BME280;75309;44.830;20.460;2024-03-23T12:49:26;100030.53;;;19.65;33.08
84994;BME280;75309;44.830;20.460;2024-03-23T12:51:55;100026.55;;;19.69;32.49
84994;BME280;75309;44.830;20.460;2024-03-23T12:54:24;100021.15;;;19.71;32.90
84994;BME280;75309;44.830;20.460;2024-03-23T12:56:55;100019.08;;;19.74;32.95
84994;BME280;75309;44.830;20.460;2024-03-23T12:59:23;100015.59;;;19.77;31.74
84994;BME280;75309;44.830;20.460;2024-03-23T13:01:51;100014.23;;;19.80;32.47
84994;BME280;75309;44.830;20.460;2024-03-23T13:04:19;100009.38;;;19.83;31.73
84994;BME280;75309;44.830;20.460;2024-03-23T13:06:48;100007.63;;;19.85;31.81
84994;BME280;75309;44.830;20.460;2024-03-23T13:09:15;100003.98;;;19.87;31.75
84994;BME280;75309;44.830;20.460;2024-03-23T13:11:44;100003.63;;;19.89;31.65
84994;BME280;75309;44.830;20.460;2024-03-23T13:14:12;99995.29;;;19.91;31.49
84994;BME280;75309;44.830;20.460;2024-03-23T13:16:46;99992.33;;;19.93;31.15
84994;BME280;75309;44.830;20.460;2024-03-23T13:19:14;99988.33;;;19.94;31.61
84994;BME280;75309;44.830;20.460;2024-03-23T13:21:41;99984.85;;;19.96;31.35
84994;BME280;75309;44.830;20.460;2024-03-23T13:24:09;99980.14;;;19.99;30.86
84994;BME280;75309;44.830;20.460;2024-03-23T13:26:37;99976.15;;;20.01;30.96
84994;BME280;75309;44.830;20.460;2024-03-23T13:29:05;99974.05;;;20.04;32.59
84994;BME280;75309;44.830;20.460;2024-03-23T13:31:32;99971.27;;;20.09;31.94
84994;BME280;75309;44.830;20.460;2024-03-23T13:34:01;99966.39;;;20.15;31.79
84994;BME280;75309;44.830;20.460;2024-03-23T13:36:29;99962.04;;;20.18;32.63
84994;BME280;75309;44.830;20.460;2024-03-23T13:38:57;99959.59;;;20.22;32.25
84994;BME280;75309;44.830;20.460;2024-03-23T13:41:25;99953.32;;;20.26;32.08
84994;BME280;75309;44.830;20.460;2024-03-23T13:43:53;99948.27;;;20.28;31.40
84994;BME280;75309;44.830;20.460;2024-03-23T13:46:21;99946.70;;;20.31;31.12
84994;BME280;75309;44.830;20.460;2024-03-23T13:48:49;99943.56;;;20.33;31.86
84994;BME280;75309;44.830;20.460;2024-03-23T13:51:24;99940.77;;;20.35;31.85